Time;durP1;ratioP1;P1;durP2;ratioP2;P2;SDS_P1;SDS_P2;PMS_P1;PMS_P2;Temp;Humidity;BMP_temperature;BMP_pressure;BME280_temperature;BME280_humidity;BME280_pressure;Samples;Min_cycle;Max_cycle;Signal;HPM_P1;HPM_P2
2021/01/02 00:00:53;;;;;;;13.60;8.40;;;1.90;99.90;;;;;;5077079;28;20450;-68
2021/01/02 00:03:58;;;;;;;11.87;7.90;;;2.10;99.90;;;;;;5069700;28;20476;-68
2021/01/02 00:06:43;;;;;;;12.70;9.03;;;2.20;99.90;;;;;;5074921;28;20539;-67
2021/01/02 00:09:13;;;;;;;12.27;7.63;;;2.10;99.90;;;;;;5085415;28;20514;-67
2021/01/02 00:12:01;;;;;;;12.67;7.37;;;2.00;99.90;;;;;;5073964;28;20565;-68
2021/01/02 00:14:43;;;;;;;12.40;7.20;;;1.90;99.90;;;;;;5075542;28;20900;-68
2021/01/02 00:17:49;;;;;;;12.40;7.17;;;2.20;99.90;;;;;;5072447;28;20937;-67
2021/01/02 00:20:45;;;;;;;11.60;7.33;;;2.40;99.90;;;;;;5063968;28;20457;-68
2021/01/02 00:23:28;;;;;;;11.10;7.17;;;2.30;99.90;;;;;;5068408;28;20487;-68
2021/01/02 00:26:02;;;;;;;11.13;7.67;;;2.10;99.90;;;;;;5081270;28;20532;-68
2021/01/02 00:28:31;;;;;;;12.50;8.20;;;2.10;99.90;;;;;;5075210;28;20536;-68
2021/01/02 00:31:34;;;;;;;11.50;7.00;;;2.20;99.90;;;;;;5072898;28;20528;-68
2021/01/02 00:34:27;;;;;;;10.07;7.23;;;2.30;99.90;;;;;;5064864;28;20845;-68
2021/01/02 00:37:03;;;;;;;10.27;6.97;;;2.20;99.90;;;;;;5076407;28;20458;-68
2021/01/02 00:39:46;;;;;;;14.07;7.47;;;2.10;99.90;;;;;;5066316;28;20453;-68
2021/01/02 00:42:13;;;;;;;13.03;7.47;;;2.10;99.90;;;;;;5072756;28;20521;-68
2021/01/02 00:44:41;;;;;;;12.27;8.20;;;2.00;99.90;;;;;;5069590;28;20531;-68
2021/01/02 00:47:10;;;;;;;11.97;8.27;;;2.00;99.90;;;;;;5065348;28;20456;-68
2021/01/02 00:49:37;;;;;;;12.90;8.20;;;2.20;99.90;;;;;;5077165;28;20547;-68
2021/01/02 00:52:14;;;;;;;12.63;7.43;;;2.20;99.90;;;;;;5071683;28;20452;-68
2021/01/02 00:54:55;;;;;;;12.67;7.10;;;2.20;99.90;;;;;;5070574;28;20469;-68
2021/01/02 00:57:43;;;;;;;11.63;8.47;;;2.40;99.90;;;;;;5077435;28;21013;-68
2021/01/02 01:00:10;;;;;;;9.83;6.97;;;2.70;99.90;;;;;;5072715;28;20552;-68
2021/01/02 01:03:04;;;;;;;9.90;7.53;;;2.70;52.90;;;;;;5070567;28;20536;-68
2021/01/02 01:05:35;;;;;;;12.67;7.50;;;2.50;81.00;;;;;;5077981;28;20564;-69
2021/01/02 01:08:03;;;;;;;11.73;7.80;;;2.30;99.90;;;;;;5080854;28;20452;-68
2021/01/02 01:10:32;;;;;;;9.63;7.30;;;2.30;99.90;;;;;;5070952;28;20884;-68
2021/01/02 01:13:01;;;;;;;10.60;7.80;;;2.30;99.90;;;;;;5076657;28;20490;-69
2021/01/02 01:15:29;;;;;;;10.90;7.47;;;2.40;99.90;;;;;;5081627;28;20536;-69
2021/01/02 01:18:19;;;;;;;15.70;8.63;;;2.50;99.90;;;;;;5087124;28;20892;-69
2021/01/02 01:20:46;;;;;;;12.40;8.00;;;2.50;99.90;;;;;;5079842;28;20449;-68
2021/01/02 01:23:25;;;;;;;10.43;8.53;;;2.60;99.90;;;;;;5073548;28;20554;-69
2021/01/02 01:26:09;;;;;;;11.87;6.93;;;2.50;99.90;;;;;;5076900;28;20937;-68
2021/01/02 01:28:39;;;;;;;12.90;8.07;;;2.50;99.90;;;;;;5064290;28;20444;-69
2021/01/02 01:31:09;;;;;;;13.23;7.60;;;2.50;99.90;;;;;;5082759;28;20867;-68
2021/01/02 01:33:47;;;;;;;13.90;8.90;;;2.50;99.90;;;;;;5087546;28;20583;-69
2021/01/02 01:36:16;;;;;;;11.83;7.90;;;2.60;99.90;;;;;;5074356;28;20439;-69
2021/01/02 01:38:43;;;;;;;12.00;7.60;;;2.80;99.90;;;;;;5080324;28;20473;-69
2021/01/02 01:41:14;;;;;;;13.60;8.23;;;2.90;48.10;;;;;;5071589;28;20994;-68
2021/01/02 01:44:23;;;;;;;18.83;8.27;;;2.90;99.90;;;;;;5072266;28;20569;-68
2021/01/02 01:46:53;;;;;;;10.10;7.37;;;2.70;99.90;;;;;;5073468;28;20441;-69
2021/01/02 01:50:15;;;;;;;12.40;7.80;;;2.90;99.90;;;;;;5072629;28;20530;-68
2021/01/02 01:53:10;;;;;;;11.67;7.00;;;2.80;94.60;;;;;;5072124;28;20489;-69
2021/01/02 01:55:49;;;;;;;9.43;7.07;;;2.90;99.90;;;;;;5044628;28;20531;-70
2021/01/02 01:58:22;;;;;;;14.97;7.87;;;3.00;92.30;;;;;;5072824;28;20559;-68
2021/01/02 02:00:50;;;;;;;9.93;7.20;;;3.00;42.20;;;;;;5072870;28;20452;-68
2021/01/02 02:03:23;;;;;;;13.27;7.77;;;3.00;99.90;;;;;;5071590;28;20976;-69
2021/01/02 02:05:55;;;;;;;12.30;7.10;;;3.00;99.90;;;;;;5072910;28;20522;-69
2021/01/02 02:08:41;;;;;;;9.73;8.23;;;3.00;62.50;;;;;;5072002;28;21068;-68
2021/01/02 02:11:33;;;;;;;10.87;7.53;;;2.90;35.00;;;;;;5072887;28;20444;-68
2021/01/02 02:14:09;;;;;;;11.17;7.73;;;2.80;99.90;;;;;;5072559;28;20814;-69
2021/01/02 02:16:42;;;;;;;13.10;7.30;;;3.00;99.90;;;;;;5072631;28;20486;-68
2021/01/02 02:19:28;;;;;;;12.27;8.00;;;3.20;22.20;;;;;;5072402;28;20467;-69
2021/01/02 02:22:00;;;;;;;14.13;8.13;;;3.20;1.00;;;;;;5071980;28;20457;-69
2021/01/02 02:24:31;;;;;;;9.93;7.33;;;3.20;2.10;;;;;;5071405;28;20503;-69
2021/01/02 02:26:58;;;;;;;13.30;7.30;;;3.20;50.30;;;;;;5063241;28;20528;-69
2021/01/02 02:29:29;;;;;;;11.33;7.97;;;3.20;11.40;;;;;;5071992;28;20540;-69
2021/01/02 02:31:56;;;;;;;11.17;8.07;;;3.00;16.70;;;;;;5072745;28;20446;-68
2021/01/02 02:34:24;;;;;;;12.93;8.53;;;3.10;63.80;;;;;;5071416;28;20744;-69
2021/01/02 02:36:50;;;;;;;14.07;7.77;;;3.20;51.60;;;;;;5072351;28;20448;-68
2021/01/02 02:39:17;;;;;;;12.03;7.50;;;3.30;1.00;;;;;;5071970;28;20532;-68
2021/01/02 02:41:47;;;;;;;8.70;6.87;;;3.30;12.90;;;;;;5072743;28;20449;-69
2021/01/02 02:44:16;;;;;;;10.07;6.77;;;3.30;9.00;;;;;;5071317;28;20483;-68
2021/01/02 02:46:45;;;;;;;11.23;7.70;;;3.00;41.40;;;;;;5071765;28;20614;-69
2021/01/02 02:49:15;;;;;;;9.97;6.80;;;3.00;99.90;;;;;;5071263;28;20485;-69
2021/01/02 02:51:52;;;;;;;10.43;7.67;;;3.00;91.20;;;;;;5071822;28;20448;-68
2021/01/02 02:54:21;;;;;;;9.20;7.30;;;3.10;95.00;;;;;;5071989;28;20823;-68
2021/01/02 02:56:48;;;;;;;12.30;7.67;;;3.00;99.90;;;;;;5073591;28;20521;-69
2021/01/02 02:59:15;;;;;;;12.00;7.67;;;2.80;99.90;;;;;;5071083;28;20490;-68
2021/01/02 03:01:41;;;;;;;10.90;7.50;;;2.80;99.90;;;;;;5067992;28;20518;-69
2021/01/02 03:04:08;;;;;;;11.77;7.57;;;2.80;99.90;;;;;;5070710;28;20477;-68
2021/01/02 03:06:35;;;;;;;16.73;8.27;;;3.00;99.90;;;;;;5071490;28;20535;-69
2021/01/02 03:09:02;;;;;;;12.77;8.77;;;3.10;99.90;;;;;;5071114;28;20454;-69
2021/01/02 03:11:30;;;;;;;11.93;7.23;;;3.10;99.90;;;;;;5071165;28;20449;-69
2021/01/02 03:13:56;;;;;;;9.27;7.13;;;3.00;23.60;;;;;;5071082;28;21008;-69
2021/01/02 03:16:23;;;;;;;9.97;7.67;;;3.00;98.60;;;;;;5070246;28;20537;-69
2021/01/02 03:18:49;;;;;;;14.23;8.87;;;3.30;99.90;;;;;;5071387;28;20587;-69
2021/01/02 03:21:17;;;;;;;16.40;9.67;;;3.20;48.40;;;;;;5070919;28;20455;-69
2021/01/02 03:23:44;;;;;;;15.33;9.33;;;3.20;99.90;;;;;;5070612;28;20481;-69
2021/01/02 03:26:11;;;;;;;14.80;10.37;;;3.30;99.90;;;;;;5070735;28;20573;-68
2021/01/02 03:28:37;;;;;;;15.40;9.73;;;3.50;85.00;;;;;;5071436;28;20535;-69
2021/01/02 03:31:04;;;;;;;12.67;8.50;;;3.60;23.50;;;;;;5070495;28;20874;-68
2021/01/02 03:33:31;;;;;;;14.80;9.73;;;3.50;1.00;;;;;;5061906;28;20540;-69
2021/01/02 03:36:02;;;;;;;12.73;10.13;;;3.60;1.00;;;;;;5070804;28;20502;-68
2021/01/02 03:38:33;;;;;;;18.13;10.47;;;3.60;18.60;;;;;;5071541;28;20874;-68
2021/01/02 03:41:00;;;;;;;14.63;10.23;;;3.60;1.00;;;;;;5070548;28;20528;-69
2021/01/02 03:43:27;;;;;;;15.50;11.37;;;3.70;1.00;;;;;;5070063;28;20509;-69
2021/01/02 03:45:53;;;;;;;17.67;12.43;;;3.70;1.00;;;;;;5070803;28;20468;-69
2021/01/02 03:48:20;;;;;;;16.17;10.10;;;3.80;1.00;;;;;;5070359;28;20518;-69
2021/01/02 03:50:46;;;;;;;18.23;10.73;;;3.70;1.00;;;;;;5070942;28;20449;-69
2021/01/02 03:53:13;;;;;;;15.73;12.37;;;3.70;1.00;;;;;;5069560;28;20456;-69
2021/01/02 03:55:40;;;;;;;20.67;10.60;;;3.70;1.00;;;;;;5070627;28;20477;-68
2021/01/02 03:58:07;;;;;;;15.80;10.50;;;3.70;1.00;;;;;;5069696;28;20473;-68
2021/01/02 04:00:34;;;;;;;14.80;11.07;;;3.70;1.00;;;;;;5070734;28;20477;-69
2021/01/02 04:03:00;;;;;;;17.93;11.40;;;3.80;1.00;;;;;;5069606;28;20526;-69
2021/01/02 04:05:27;;;;;;;14.77;10.40;;;;;;;;;;5070012;28;20591;-69
2021/01/02 04:07:53;;;;;;;16.60;11.10;;;;;;;;;;5071008;28;20506;-69
2021/01/02 04:10:20;;;;;;;18.53;11.40;;;;;;;;;;5070364;28;20528;-69
2021/01/02 04:12:48;;;;;;;14.23;10.10;;;;;;;;;;5070020;28;20577;-69
2021/01/02 04:15:14;;;;;;;17.30;11.50;;;;;;;;;;5070113;28;21055;-69
2021/01/02 04:17:41;;;;;;;14.03;10.90;;;;;;;;;;5070251;28;20947;-69
2021/01/02 04:20:08;;;;;;;18.90;11.07;;;;;;;;;;5070164;28;20521;-68
2021/01/02 04:22:35;;;;;;;15.70;9.57;;;;;;;;;;5069252;28;20833;-69
2021/01/02 04:25:01;;;;;;;14.03;10.43;;;;;;;;;;5070295;28;20952;-68
2021/01/02 04:27:28;;;;;;;14.57;10.60;;;;;;;;;;5068506;28;20531;-69
2021/01/02 04:29:55;;;;;;;15.90;10.07;;;;;;;;;;5070433;28;20540;-69
2021/01/02 04:32:22;;;;;;;12.07;9.70;;;;;;;;;;5069465;28;20505;-69
2021/01/02 04:34:49;;;;;;;13.70;9.33;;;;;;;;;;5070532;28;20547;-69
2021/01/02 04:37:15;;;;;;;13.90;10.90;;;;;;;;;;5069452;28;20453;-68
2021/01/02 04:39:42;;;;;;;12.83;9.80;;;;;;;;;;5070116;28;20568;-69
2021/01/02 04:42:09;;;;;;;15.20;9.70;;;;;;;;;;5069690;28;20536;-68
2021/01/02 04:44:36;;;;;;;17.07;10.40;;;;;;;;;;5070335;28;20510;-70
2021/01/02 04:47:04;;;;;;;14.83;10.20;;;;;;;;;;5085091;28;20447;-69
2021/01/02 04:49:31;;;;;;;15.43;10.07;;;;;;;;;;5090464;28;20959;-69
2021/01/02 04:52:01;;;;;;;15.20;10.40;;;;;;;;;;5090443;28;20579;-69
2021/01/02 04:54:28;;;;;;;12.80;9.03;;;;;;;;;;5089418;28;20549;-68
2021/01/02 04:56:54;;;;;;;14.63;9.97;;;;;;;;;;5090418;28;20476;-68
2021/01/02 04:59:27;;;;;;;12.83;8.83;;;;;;;;;;5069992;28;20552;-68
2021/01/02 05:01:54;;;;;;;17.87;11.67;;;;;;;;;;5072682;28;20448;-70
2021/01/02 05:04:22;;;;;;;12.23;9.43;;;;;;;;;;5068940;28;20477;-68
2021/01/02 05:06:49;;;;;;;12.20;9.20;;;;;;;;;;5071410;28;20442;-68
2021/01/02 05:09:16;;;;;;;15.17;10.37;;;;;;;;;;5080382;28;20563;-68
2021/01/02 05:11:42;;;;;;;14.97;9.70;;;;;;;;;;5071013;28;20453;-68
2021/01/02 05:14:09;;;;;;;15.47;9.83;;;;;;;;;;5069364;28;20445;-68
2021/01/02 05:16:37;;;;;;;13.53;8.87;;;;;;;;;;5070944;28;20449;-68
2021/01/02 05:19:05;;;;;;;15.10;9.83;;;;;;;;;;5090904;28;20444;-69
2021/01/02 05:21:33;;;;;;;14.80;9.47;;;;;;;;;;5084246;28;20540;-68
2021/01/02 05:24:03;;;;;;;15.17;9.60;;;;;;;;;;5070948;28;20492;-68
2021/01/02 05:26:30;;;;;;;14.50;9.97;;;;;;;;;;5069850;28;20481;-68
2021/01/02 05:29:12;;;;;;;15.63;10.00;;;;;;;;;;5070247;28;20444;-68
2021/01/02 05:31:40;;;;;;;16.20;9.73;;;;;;;;;;5071257;28;20544;-68
2021/01/02 05:34:07;;;;;;;16.23;10.13;;;;;;;;;;5089083;28;20448;-68
2021/01/02 05:36:35;;;;;;;17.53;11.33;;;;;;;;;;5072062;28;20480;-68
2021/01/02 05:39:02;;;;;;;19.00;11.00;;;;;;;;;;5088738;28;20553;-68
2021/01/02 05:41:28;;;;;;;20.53;12.27;;;;;;;;;;5087688;28;20448;-68
2021/01/02 05:44:10;;;;;;;16.17;11.60;;;;;;;;;;5093408;28;20506;-68
2021/01/02 05:46:43;;;;;;;17.33;11.47;;;;;;;;;;5079803;28;20536;-68
2021/01/02 05:49:27;;;;;;;18.47;10.80;;;;;;;;;;5085128;28;20451;-68
2021/01/02 05:51:57;;;;;;;20.10;12.47;;;;;;;;;;5073300;28;20954;-68
2021/01/02 05:54:25;;;;;;;23.20;11.70;;;;;;;;;;5076442;28;20986;-68
2021/01/02 05:56:55;;;;;;;14.80;10.40;;;;;;;;;;5092782;28;20527;-68
2021/01/02 05:59:29;;;;;;;19.40;11.47;;;;;;;;;;5072674;28;20488;-68
2021/01/02 06:01:55;;;;;;;18.50;10.37;;;;;;;;;;5077025;28;20532;-68
2021/01/02 06:04:22;;;;;;;17.27;11.30;;;;;;;;;;5073097;28;20515;-68
2021/01/02 06:07:05;;;;;;;22.90;12.50;;;;;;;;;;5072941;28;20532;-68
2021/01/02 06:09:33;;;;;;;21.67;12.73;;;;;;;;;;5074513;28;20538;-68
2021/01/02 06:12:03;;;;;;;18.80;12.20;;;;;;;;;;5087995;28;20530;-68
2021/01/02 06:14:33;;;;;;;22.63;12.83;;;;;;;;;;5083352;28;20459;-68
2021/01/02 06:17:03;;;;;;;24.87;12.60;;;;;;;;;;5090370;28;20527;-68
2021/01/02 06:19:30;;;;;;;21.03;12.50;;;;;;;;;;5093090;28;20512;-68
2021/01/02 06:21:57;;;;;;;25.53;14.77;;;;;;;;;;5084325;28;20447;-68
2021/01/02 06:24:23;;;;;;;28.63;14.73;;;;;;;;;;5086579;28;20575;-68
2021/01/02 06:26:52;;;;;;;29.17;15.13;;;;;;;;;;5088824;28;20508;-68
2021/01/02 06:29:19;;;;;;;24.23;13.53;;;;;;;;;;5072458;28;20670;-68
2021/01/02 06:31:46;;;;;;;25.03;12.60;;;;;;;;;;5085733;28;20453;-68
2021/01/02 06:34:12;;;;;;;26.27;13.63;;;3.70;1.00;;;;;;5091618;28;20459;-67
2021/01/02 06:36:40;;;;;;;26.93;14.70;;;3.50;19.20;;;;;;5089575;28;20974;-68
2021/01/02 06:39:20;;;;;;;24.50;12.20;;;3.40;99.90;;;;;;5091548;28;20448;-68
2021/01/02 06:41:47;;;;;;;29.07;15.43;;;3.30;99.90;;;;;;5086370;28;20463;-68
2021/01/02 06:44:39;;;;;;;31.00;15.00;;;3.30;99.90;;;;;;5077358;28;20901;-68
2021/01/02 06:47:18;;;;;;;31.33;16.80;;;3.40;99.90;;;;;;5081434;28;20511;-68
2021/01/02 06:49:45;;;;;;;25.93;15.93;;;3.60;99.90;;;;;;5072642;28;21010;-68
2021/01/02 06:52:30;;;;;;;32.77;14.83;;;3.40;99.90;;;;;;5091007;28;20449;-68
2021/01/02 06:55:18;;;;;;;29.83;15.00;;;3.50;99.90;;;;;;5092484;28;20957;-68
2021/01/02 06:57:44;;;;;;;28.67;14.23;;;3.30;99.90;;;;;;5075676;28;20481;-68
2021/01/02 07:00:23;;;;;;;34.37;14.27;;;3.40;99.90;;;;;;5074603;28;20527;-68
2021/01/02 07:02:49;;;;;;;29.20;13.97;;;3.30;99.90;;;;;;5067313;28;20463;-68
2021/01/02 07:05:44;;;;;;;29.07;14.43;;;3.40;99.90;;;;;;5071339;28;20562;-68
2021/01/02 07:08:42;;;;;;;27.23;13.50;;;3.20;99.90;;;;;;5067456;28;20446;-67
2021/01/02 07:11:27;;;;;;;21.87;12.77;;;3.00;99.90;;;;;;5071761;28;20535;-67
2021/01/02 07:14:19;;;;;;;29.47;14.17;;;3.80;99.90;;;;;;5071810;28;20518;-68
2021/01/02 07:16:49;;;;;;;28.73;15.20;;;3.30;99.90;;;;;;5071643;28;20537;-68
2021/01/02 07:19:30;;;;;;;21.83;13.47;;;3.30;99.90;;;;;;5071810;28;20441;-68
2021/01/02 07:22:01;;;;;;;25.73;13.03;;;3.30;99.90;;;;;;5085328;28;20448;-69
2021/01/02 07:24:29;;;;;;;19.07;11.13;;;3.20;99.90;;;;;;5085030;28;20480;-68
2021/01/02 07:27:00;;;;;;;21.50;12.67;;;3.20;99.90;;;;;;5074052;28;20895;-68
2021/01/02 07:29:27;;;;;;;24.10;12.67;;;3.30;99.90;;;;;;5082297;28;20902;-68
2021/01/02 07:32:04;;;;;;;22.37;12.30;;;3.20;99.90;;;;;;5082329;28;20586;-68
2021/01/02 07:34:30;;;;;;;20.33;10.33;;;3.30;99.90;;;;;;5071401;28;20477;-70
2021/01/02 07:37:01;;;;;;;22.93;11.63;;;3.10;99.90;;;;;;5071324;28;20487;-68
2021/01/02 07:39:27;;;;;;;28.67;12.70;;;3.10;99.90;;;;;;5070062;28;20525;-68
2021/01/02 07:41:54;;;;;;;24.10;12.53;;;3.30;99.90;;;;;;5065292;28;20539;-71
2021/01/02 07:44:21;;;;;;;23.70;13.27;;;3.20;99.90;;;;;;5067918;28;20487;-70
2021/01/02 07:46:48;;;;;;;24.30;11.50;;;3.40;99.90;;;;;;5083608;28;20460;-71
2021/01/02 07:49:17;;;;;;;20.53;12.23;;;3.50;99.90;;;;;;5075776;28;20877;-70
2021/01/02 07:51:47;;;;;;;20.60;10.83;;;3.50;74.30;;;;;;5081077;28;20445;-68
2021/01/02 07:54:26;;;;;;;19.20;11.67;;;3.50;93.10;;;;;;5081378;28;20471;-68
2021/01/02 07:56:53;;;;;;;21.60;10.67;;;3.40;99.80;;;;;;5079797;28;20539;-72
2021/01/02 07:59:23;;;;;;;24.50;12.43;;;3.30;99.90;;;;;;5080907;28;20921;-68
2021/01/02 08:01:51;;;;;;;27.23;12.27;;;3.30;99.90;;;;;;5074701;28;20551;-68
2021/01/02 08:04:19;;;;;;;27.90;13.33;;;3.50;99.90;;;;;;5081341;28;20513;-68
2021/01/02 08:06:50;;;;;;;24.37;12.67;;;3.50;93.80;;;;;;5078397;28;20584;-68
2021/01/02 08:09:17;;;;;;;24.13;12.07;;;3.60;20.40;;;;;;5084334;28;20464;-68
2021/01/02 08:11:58;;;;;;;24.37;12.43;;;3.60;27.00;;;;;;5085246;28;21008;-68
2021/01/02 08:14:31;;;;;;;22.67;11.90;;;3.40;27.90;;;;;;5075064;28;20522;-68
2021/01/02 08:17:02;;;;;;;19.80;11.70;;;3.40;66.60;;;;;;5080460;28;20468;-69
2021/01/02 08:19:31;;;;;;;21.60;12.07;;;3.50;69.70;;;;;;5085478;28;20525;-68
2021/01/02 08:21:59;;;;;;;20.43;11.00;;;3.50;65.40;;;;;;5083640;28;20439;-70
2021/01/02 08:24:26;;;;;;;15.60;10.33;;;3.40;79.10;;;;;;5079281;28;20515;-69
2021/01/02 08:26:53;;;;;;;17.03;10.60;;;3.40;46.00;;;;;;5078039;28;20528;-70
2021/01/02 08:29:19;;;;;;;18.83;11.10;;;3.40;99.90;;;;;;5068391;28;20539;-70
2021/01/02 08:31:49;;;;;;;23.50;12.57;;;3.60;50.70;;;;;;5073805;28;20449;-70
2021/01/02 08:34:31;;;;;;;21.90;13.00;;;3.60;38.80;;;;;;5073592;28;20542;-70
2021/01/02 08:37:09;;;;;;;22.80;13.47;;;3.60;1.00;;;;;;5070985;28;20530;-70
2021/01/02 08:39:36;;;;;;;20.00;11.20;;;3.50;28.20;;;;;;5068800;28;21018;-70
2021/01/02 08:42:03;;;;;;;20.97;10.77;;;3.50;70.10;;;;;;5075558;28;20481;-70
2021/01/02 08:44:32;;;;;;;22.10;11.47;;;3.50;47.60;;;;;;5084591;28;21002;-68
2021/01/02 08:46:59;;;;;;;22.97;11.43;;;3.50;55.70;;;;;;5080164;28;20478;-68
2021/01/02 08:49:35;;;;;;;23.50;12.70;;;3.50;26.00;;;;;;5074848;28;20817;-69
2021/01/02 08:52:33;;;;;;;19.60;12.20;;;3.50;99.90;;;;;;5080975;28;20496;-68
2021/01/02 08:55:11;;;;;;;23.73;13.37;;;3.60;99.90;;;;;;5064493;28;20454;-68
2021/01/02 08:57:44;;;;;;;23.53;11.40;;;3.60;87.70;;;;;;5070135;28;20457;-70
2021/01/02 09:00:29;;;;;;;19.43;11.30;;;3.60;81.30;;;;;;5076016;28;20446;-70
2021/01/02 09:03:05;;;;;;;21.10;11.03;;;3.70;22.00;;;;;;5069721;28;20447;-70
2021/01/02 09:05:34;;;;;;;20.30;10.80;;;3.90;1.00;;;;;;5069410;28;20996;-71
2021/01/02 09:08:01;;;;;;;21.03;11.23;;;3.60;1.00;;;;;;5067410;28;20448;-70
2021/01/02 09:10:30;;;;;;;25.33;12.70;;;3.80;1.00;;;;;;5068692;28;20446;-72
2021/01/02 09:13:00;;;;;;;25.50;13.23;;;3.70;1.00;;;;;;5069331;28;20528;-71
2021/01/02 09:15:47;;;;;;;19.47;11.27;;;3.70;1.00;;;;;;5070993;28;20536;-71
2021/01/02 09:18:15;;;;;;;18.83;11.47;;;3.60;1.00;;;;;;5071997;28;20472;-71
2021/01/02 09:20:43;;;;;;;18.97;11.23;;;3.60;1.00;;;;;;5072220;28;20531;-71
2021/01/02 09:23:09;;;;;;;22.23;12.00;;;3.60;1.00;;;;;;5077059;28;20527;-70
2021/01/02 09:25:38;;;;;;;24.50;12.37;;;3.50;3.80;;;;;;5081297;28;20509;-70
2021/01/02 09:28:16;;;;;;;16.67;10.47;;;3.30;56.70;;;;;;5080664;28;20523;-70
2021/01/02 09:30:43;;;;;;;18.90;11.27;;;3.60;84.80;;;;;;5080298;28;20524;-71
2021/01/02 09:33:09;;;;;;;20.63;11.57;;;3.50;32.30;;;;;;5081361;28;20588;-72
2021/01/02 09:35:37;;;;;;;20.47;11.57;;;3.60;1.00;;;;;;5084864;28;20477;-71
2021/01/02 09:38:05;;;;;;;21.83;12.20;;;3.60;1.00;;;;;;5092779;28;20539;-70
2021/01/02 09:40:34;;;;;;;22.27;11.67;;;3.70;1.00;;;;;;5070438;28;20964;-72
2021/01/02 09:43:02;;;;;;;17.90;11.60;;;3.60;1.00;;;;;;5076151;28;20976;-70
2021/01/02 09:45:28;;;;;;;16.97;10.50;;;3.70;1.00;;;;;;5068967;28;20932;-72
2021/01/02 09:47:55;;;;;;;21.30;12.00;;;3.70;1.00;;;;;;5072752;28;20536;-70
2021/01/02 09:50:22;;;;;;;21.30;11.33;;;3.60;1.00;;;;;;5083524;28;20884;-72
2021/01/02 09:52:48;;;;;;;22.00;11.90;;;3.70;1.00;;;;;;5090720;28;20538;-70
2021/01/02 09:55:15;;;;;;;21.17;12.40;;;3.70;1.00;;;;;;5090231;28;20538;-70
2021/01/02 09:57:45;;;;;;;17.00;11.10;;;3.70;1.00;;;;;;5085969;28;20478;-69
2021/01/02 10:00:12;;;;;;;25.20;12.43;;;3.70;1.00;;;;;;5073481;28;20449;-69
2021/01/02 10:02:39;;;;;;;24.00;13.30;;;3.80;1.00;;;;;;5074102;28;20870;-70
2021/01/02 10:05:06;;;;;;;22.93;14.20;;;3.70;1.00;;;;;;5070604;28;20487;-70
2021/01/02 10:07:33;;;;;;;21.63;12.87;;;3.70;1.00;;;;;;5071680;28;20567;-70
2021/01/02 10:09:59;;;;;;;19.97;12.60;;;3.70;1.00;;;;;;5085155;28;20483;-70
2021/01/02 10:12:26;;;;;;;18.80;12.37;;;3.80;1.00;;;;;;5090093;28;20874;-70
2021/01/02 10:14:53;;;;;;;17.43;12.93;;;3.70;1.00;;;;;;5090671;28;20601;-70
2021/01/02 10:17:20;;;;;;;19.20;11.83;;;3.80;1.00;;;;;;5076400;28;20448;-69
2021/01/02 10:19:48;;;;;;;19.27;12.27;;;3.90;1.00;;;;;;5088409;28;20951;-70
2021/01/02 10:22:16;;;;;;;19.40;12.43;;;3.90;1.00;;;;;;5069238;28;20576;-70
2021/01/02 10:24:46;;;;;;;18.17;11.13;;;3.60;1.00;;;;;;5077659;28;20516;-69
2021/01/02 10:27:13;;;;;;;21.10;11.83;;;3.80;1.00;;;;;;5069660;28;20476;-69
2021/01/02 10:29:43;;;;;;;19.07;12.37;;;3.80;1.00;;;;;;5056283;28;20529;-69
2021/01/02 10:32:10;;;;;;;20.63;12.80;;;4.00;99.90;;;;;;5069054;28;20548;-71
2021/01/02 10:34:37;;;;;;;19.40;12.83;;;4.00;99.90;;;;;;5083861;28;20470;-69
2021/01/02 10:37:03;;;;;;;23.57;13.03;;;3.90;99.90;;;;;;5070973;28;20525;-70
2021/01/02 10:39:30;;;;;;;19.90;12.53;;;3.90;99.90;;;;;;5078162;28;20459;-70
2021/01/02 10:41:56;;;;;;;19.83;12.20;;;3.80;99.90;;;;;;5090046;28;20479;-70
2021/01/02 10:44:22;;;;;;;22.27;13.00;;;3.80;99.90;;;;;;5089340;28;20545;-70
2021/01/02 10:46:50;;;;;;;20.00;12.57;;;3.80;99.90;;;;;;5088305;28;20493;-70
2021/01/02 10:49:19;;;;;;;21.40;12.37;;;4.00;99.90;;;;;;5078471;28;20477;-70
2021/01/02 10:51:46;;;;;;;16.30;11.40;;;4.10;99.90;;;;;;5070312;28;20618;-70
2021/01/02 10:54:14;;;;;;;21.40;12.03;;;4.00;99.90;;;;;;5075166;28;20467;-70
2021/01/02 10:56:45;;;;;;;21.00;11.10;;;4.10;99.90;;;;;;5085171;28;20444;-71
2021/01/02 10:59:11;;;;;;;20.03;12.03;;;4.10;99.90;;;;;;5076347;28;20475;-71
2021/01/02 11:01:42;;;;;;;18.27;11.60;;;3.90;99.90;;;;;;5070856;28;20458;-70
2021/01/02 11:04:09;;;;;;;15.63;10.40;;;4.00;99.90;;;;;;5067332;28;20454;-70
2021/01/02 11:06:38;;;;;;;16.47;11.17;;;4.20;1.00;;;;;;5066444;28;20452;-70
2021/01/02 11:09:05;;;;;;;19.93;10.83;;;4.20;99.90;;;;;;5068942;28;20957;-70
2021/01/02 11:11:32;;;;;;;15.83;10.33;;;4.10;46.70;;;;;;5070043;28;21022;-70
2021/01/02 11:13:58;;;;;;;17.27;11.27;;;3.70;99.90;;;;;;5068195;28;20544;-70
2021/01/02 11:16:32;;;;;;;17.20;10.63;;;3.90;99.90;;;;;;5067242;28;20536;-70
2021/01/02 11:18:58;;;;;;;17.13;10.63;;;3.90;99.90;;;;;;5067477;28;20531;-70
2021/01/02 11:21:25;;;;;;;18.80;12.07;;;3.90;99.90;;;;;;5069924;28;20536;-72
2021/01/02 11:23:53;;;;;;;18.23;11.43;;;3.80;99.90;;;;;;5068808;28;20468;-71
2021/01/02 11:26:19;;;;;;;17.43;11.53;;;3.90;99.90;;;;;;5083182;28;20536;-70
2021/01/02 11:28:46;;;;;;;16.80;10.40;;;3.90;99.90;;;;;;5080776;28;20816;-70
2021/01/02 11:31:12;;;;;;;19.17;11.97;;;3.90;99.90;;;;;;5082217;28;20456;-71
2021/01/02 11:33:39;;;;;;;17.80;11.20;;;4.00;99.90;;;;;;5071394;28;20667;-71
2021/01/02 11:36:06;;;;;;;17.20;11.67;;;4.00;99.90;;;;;;5074149;28;20453;-72
2021/01/02 11:38:32;;;;;;;12.40;9.63;;;3.90;99.90;;;;;;5068514;28;20536;-71
2021/01/02 11:40:59;;;;;;;20.77;12.17;;;6.90;1.00;;;;;;5083299;28;20535;-71
2021/01/02 11:43:26;;;;;;;18.13;11.80;;;5.60;1.00;;;;;;5080945;28;20442;-71
2021/01/02 11:45:52;;;;;;;17.23;11.47;;;4.90;1.00;;;;;;5068345;28;20572;-71
2021/01/02 11:48:19;;;;;;;17.57;10.77;;;4.60;99.90;;;;;;5077671;28;20563;-72
2021/01/02 11:50:45;;;;;;;23.03;12.93;;;4.40;1.00;;;;;;5077124;28;20488;-71
2021/01/02 11:53:11;;;;;;;18.17;12.43;;;4.10;99.90;;;;;;5074524;28;20456;-71
2021/01/02 11:55:38;;;;;;;17.87;10.80;;;4.30;99.90;;;;;;5086284;28;20531;-71
2021/01/02 11:58:05;;;;;;;17.13;11.63;;;4.40;1.00;;;;;;5071869;28;20548;-73
2021/01/02 12:00:31;;;;;;;15.20;9.87;;;4.40;1.00;;;;;;5075708;28;20570;-70
2021/01/02 12:02:58;;;;;;;18.47;11.83;;;5.10;1.00;;;;;;5076410;28;20449;-70
2021/01/02 12:05:24;;;;;;;16.37;10.43;;;5.70;1.00;;;;;;5067956;28;20571;-70
2021/01/02 12:07:51;;;;;;;17.27;10.43;;;5.00;87.30;;;;;;5075316;28;20449;-71
2021/01/02 12:10:17;;;;;;;17.67;12.10;;;5.00;1.00;;;;;;5071536;28;20528;-69
2021/01/02 12:12:45;;;;;;;17.07;11.30;;;4.60;1.00;;;;;;5074319;28;20470;-70
2021/01/02 12:15:13;;;;;;;13.30;9.40;;;4.60;99.90;;;;;;5078994;28;20535;-70
2021/01/02 12:17:39;;;;;;;15.17;11.27;;;4.40;1.00;;;;;;5084472;28;20536;-69
2021/01/02 12:20:07;;;;;;;20.07;11.97;;;4.70;1.00;;;;;;5071515;28;20838;-70
2021/01/02 12:22:34;;;;;;;16.63;10.67;;;4.40;1.00;;;;;;5077112;28;20453;-70
2021/01/02 12:25:01;;;;;;;17.53;10.47;;;4.20;1.00;;;;;;5082300;28;21004;-70
2021/01/02 12:27:27;;;;;;;16.77;10.77;;;4.40;99.90;;;;;;5074640;28;20693;-70
2021/01/02 12:29:53;;;;;;;15.70;10.20;;;4.40;1.00;;;;;;5071007;28;20440;-72
2021/01/02 12:32:25;;;;;;;19.30;11.37;;;4.30;1.00;;;;;;5077212;28;20892;-69
2021/01/02 12:34:51;;;;;;;16.10;11.10;;;4.40;22.20;;;;;;5069479;28;20458;-71
2021/01/02 12:37:18;;;;;;;16.93;10.93;;;4.50;1.00;;;;;;5069169;28;20532;-70
2021/01/02 12:39:45;;;;;;;14.93;9.83;;;4.50;10.40;;;;;;5087833;28;20563;-70
2021/01/02 12:42:12;;;;;;;19.93;11.67;;;6.30;99.90;;;;;;5087450;28;20547;-69
2021/01/02 12:44:39;;;;;;;18.03;11.50;;;5.80;1.00;;;;;;5079368;28;20484;-71
2021/01/02 12:47:08;;;;;;;15.10;9.60;;;5.10;1.00;;;;;;5068096;28;20457;-70
2021/01/02 12:49:35;;;;;;;15.13;10.10;;;4.80;1.00;;;;;;5070722;28;20445;-71
2021/01/02 12:52:05;;;;;;;19.93;10.60;;;4.40;99.90;;;;;;5085419;28;20504;-72
2021/01/02 12:54:31;;;;;;;20.63;13.67;;;4.40;99.90;;;;;;5090049;28;20539;-73
2021/01/02 12:56:58;;;;;;;24.77;13.70;;;4.60;1.00;;;;;;5081257;28;20520;-70
2021/01/02 12:59:26;;;;;;;16.70;10.83;;;4.60;1.00;;;;;;5075130;28;20564;-71
2021/01/02 13:01:53;;;;;;;17.20;10.83;;;4.60;1.00;;;;;;5073968;28;20943;-72
2021/01/02 13:04:20;;;;;;;19.50;12.97;;;4.50;1.00;;;;;;5073752;28;20573;-71
2021/01/02 13:06:51;;;;;;;17.80;10.97;;;4.50;1.00;;;;;;5073944;28;20598;-71
2021/01/02 13:09:17;;;;;;;20.47;11.70;;;4.30;1.00;;;;;;5074067;28;20598;-71
2021/01/02 13:11:46;;;;;;;18.90;11.40;;;4.40;99.90;;;;;;5073917;28;20481;-71
2021/01/02 13:14:14;;;;;;;20.73;11.40;;;4.30;99.90;;;;;;5073251;28;20452;-74
2021/01/02 13:16:40;;;;;;;17.67;12.73;;;4.80;1.00;;;;;;5074142;28;20466;-72
2021/01/02 13:19:07;;;;;;;19.50;11.20;;;4.60;1.00;;;;;;5074386;28;20791;-72